createdAt,value
2022-11-10T00:04:35.171Z,60.751
2022-11-10T00:19:37.745Z,60.792
2022-11-10T00:34:40.215Z,59.437
2022-11-10T00:49:42.497Z,61.405
2022-11-10T01:04:44.826Z,60.154
2022-11-10T01:19:47.279Z,59.854
2022-11-10T01:34:49.730Z,60.022
2022-11-10T01:49:52.045Z,61.084
2022-11-10T02:04:54.343Z,61.996
2022-11-10T02:19:56.694Z,60.8
2022-11-10T02:34:58.939Z,61.515
2022-11-10T02:50:01.522Z,60.724
2022-11-10T03:05:03.709Z,60.778
2022-11-10T03:20:06.163Z,61.027
2022-11-10T03:35:08.627Z,61.724
2022-11-10T03:50:11.052Z,61.323
2022-11-10T04:05:13.600Z,60.977
2022-11-10T04:20:15.812Z,61.274
2022-11-10T04:35:18.040Z,62.351
2022-11-10T04:50:20.291Z,62.395
2022-11-10T05:05:22.750Z,64.846
2022-11-10T05:20:25.134Z,64.552
2022-11-10T05:35:27.372Z,64.436
2022-11-10T05:50:29.679Z,64.252
2022-11-10T06:05:32.029Z,64.095
2022-11-10T06:20:34.527Z,63.428
2022-11-10T06:35:36.840Z,61.534
2022-11-10T06:50:39.098Z,61.109
2022-11-10T07:05:41.340Z,61.124
2022-11-10T07:20:43.578Z,61.139
2022-11-10T07:35:45.816Z,61.738
2022-11-10T07:50:48.257Z,61.248
2022-11-10T08:05:50.776Z,62.202
2022-11-10T08:20:53.744Z,62.398
2022-11-10T08:35:56.002Z,62.736
2022-11-10T08:50:58.253Z,61.419
2022-11-10T09:06:01.164Z,62.505
2022-11-10T09:21:03.703Z,63.14
2022-11-10T09:36:05.883Z,62.34
2022-11-10T09:51:08.292Z,60.976
2022-11-10T10:06:10.559Z,62.283
2022-11-10T10:21:12.909Z,61.012
2022-11-10T10:36:15.229Z,61.092
2022-11-10T10:51:17.739Z,60.699
2022-11-10T11:06:19.973Z,60.215
2022-11-10T11:21:22.226Z,60.296
2022-11-10T11:36:24.544Z,58.579
2022-11-10T11:51:26.775Z,61.041
2022-11-10T12:06:29.025Z,60.414
2022-11-10T12:21:31.319Z,59.785
2022-11-10T12:36:33.521Z,59.188
2022-11-10T12:51:35.733Z,59.307
2022-11-10T13:06:38.084Z,59.331
2022-11-10T13:21:40.391Z,58.588
2022-11-10T13:36:42.618Z,58.249
2022-11-10T13:51:45.007Z,59.208
2022-11-10T14:06:47.314Z,58.254
2022-11-10T14:21:53.957Z,57.992
2022-11-10T14:36:57.737Z,58.481
2022-11-10T14:51:59.935Z,59.276
2022-11-10T15:07:02.484Z,58.574
2022-11-10T15:22:04.728Z,58.465
2022-11-10T15:37:07.189Z,56.532
2022-11-10T15:52:09.417Z,57.257
2022-11-10T16:07:12.119Z,57.931
2022-11-10T16:22:14.462Z,56.987
2022-11-10T16:37:16.726Z,56.393
2022-11-10T16:52:18.954Z,55.968
2022-11-10T17:07:21.293Z,56.233
2022-11-10T17:22:23.609Z,55.974
2022-11-10T17:37:25.815Z,56.623
2022-11-10T17:52:28.066Z,56.961
2022-11-10T18:07:30.290Z,57.566
2022-11-10T18:22:32.531Z,56.885
2022-11-10T18:37:38.752Z,56.8
2022-11-10T18:52:41.541Z,57.051
2022-11-10T19:07:43.823Z,56.504
2022-11-10T19:22:46.114Z,54.699
2022-11-10T19:37:48.584Z,55.651
2022-11-10T19:52:50.816Z,54.431
2022-11-10T20:07:53.160Z,51.531
2022-11-10T20:22:55.589Z,48.098
2022-11-10T20:37:57.908Z,49.792
2022-11-10T20:53:00.218Z,49.35
2022-11-10T21:08:03.109Z,49.394
2022-11-10T21:23:05.535Z,48.89
2022-11-10T21:38:07.789Z,47.764
2022-11-10T21:53:10.232Z,49.159
2022-11-10T22:08:12.501Z,49.081
2022-11-10T22:23:14.761Z,50.741
2022-11-10T22:38:17.047Z,52.753
2022-11-10T22:53:19.456Z,52.687
2022-11-10T23:08:21.759Z,53.231
2022-11-10T23:23:24.986Z,54.024
2022-11-10T23:38:27.874Z,54.462
2022-11-10T23:53:30.402Z,54.935
